sensor_id;sensor_type;location;lat;lon;timestamp;P1;durP1;ratioP1;P2;durP2;ratioP2
36949;SDS011;22861;55.824;37.660;2022-07-09T00:01:24;12.35;;;6.05;;
36949;SDS011;22861;55.824;37.660;2022-07-09T00:03:49;10.63;;;7.30;;
36949;SDS011;22861;55.824;37.660;2022-07-09T00:06:17;13.27;;;7.07;;
36949;SDS011;22861;55.824;37.660;2022-07-09T00:08:42;11.20;;;6.75;;
36949;SDS011;22861;55.824;37.660;2022-07-09T00:11:08;13.25;;;7.55;;
36949;SDS011;22861;55.824;37.660;2022-07-09T00:13:33;16.65;;;7.28;;
36949;SDS011;22861;55.824;37.660;2022-07-09T00:15:59;11.32;;;6.43;;
36949;SDS011;22861;55.824;37.660;2022-07-09T00:18:24;12.60;;;6.95;;
36949;SDS011;22861;55.824;37.660;2022-07-09T00:20:50;17.30;;;7.25;;
36949;SDS011;22861;55.824;37.660;2022-07-09T00:23:15;14.55;;;7.22;;
36949;SDS011;22861;55.824;37.660;2022-07-09T00:25:41;12.45;;;6.43;;
36949;SDS011;22861;55.824;37.660;2022-07-09T00:28:06;14.82;;;7.25;;
36949;SDS011;22861;55.824;37.660;2022-07-09T00:30:32;12.88;;;6.50;;
36949;SDS011;22861;55.824;37.660;2022-07-09T00:32:57;12.70;;;6.80;;
36949;SDS011;22861;55.824;37.660;2022-07-09T00:35:23;17.38;;;6.15;;
36949;SDS011;22861;55.824;37.660;2022-07-09T00:37:48;13.30;;;5.95;;
36949;SDS011;22861;55.824;37.660;2022-07-09T00:40:14;11.70;;;6.70;;
36949;SDS011;22861;55.824;37.660;2022-07-09T00:42:40;15.38;;;7.07;;
36949;SDS011;22861;55.824;37.660;2022-07-09T00:45:05;15.32;;;6.38;;
36949;SDS011;22861;55.824;37.660;2022-07-09T00:47:32;10.63;;;6.43;;
36949;SDS011;22861;55.824;37.660;2022-07-09T00:49:57;12.45;;;7.95;;
36949;SDS011;22861;55.824;37.660;2022-07-09T00:52:23;17.65;;;7.60;;
36949;SDS011;22861;55.824;37.660;2022-07-09T00:54:48;18.42;;;8.02;;
36949;SDS011;22861;55.824;37.660;2022-07-09T00:57:15;17.42;;;8.30;;
36949;SDS011;22861;55.824;37.660;2022-07-09T00:59:42;13.88;;;7.13;;
36949;SDS011;22861;55.824;37.660;2022-07-09T01:02:08;21.05;;;9.13;;
36949;SDS011;22861;55.824;37.660;2022-07-09T01:04:34;15.55;;;8.30;;
36949;SDS011;22861;55.824;37.660;2022-07-09T01:07:00;16.40;;;9.07;;
36949;SDS011;22861;55.824;37.660;2022-07-09T01:09:26;11.88;;;6.78;;
36949;SDS011;22861;55.824;37.660;2022-07-09T01:11:53;16.33;;;8.90;;
36949;SDS011;22861;55.824;37.660;2022-07-09T01:14:19;19.33;;;10.10;;
36949;SDS011;22861;55.824;37.660;2022-07-09T01:16:45;13.52;;;8.52;;
36949;SDS011;22861;55.824;37.660;2022-07-09T01:19:11;15.30;;;10.57;;
36949;SDS011;22861;55.824;37.660;2022-07-09T01:21:36;13.25;;;8.40;;
36949;SDS011;22861;55.824;37.660;2022-07-09T01:24:02;17.02;;;10.57;;
36949;SDS011;22861;55.824;37.660;2022-07-09T01:26:28;12.60;;;9.75;;
36949;SDS011;22861;55.824;37.660;2022-07-09T01:28:53;12.63;;;7.30;;
36949;SDS011;22861;55.824;37.660;2022-07-09T01:31:19;21.52;;;11.30;;
36949;SDS011;22861;55.824;37.660;2022-07-09T01:33:45;19.45;;;11.90;;
36949;SDS011;22861;55.824;37.660;2022-07-09T01:36:11;15.32;;;9.27;;
36949;SDS011;22861;55.824;37.660;2022-07-09T01:38:37;19.40;;;10.35;;
36949;SDS011;22861;55.824;37.660;2022-07-09T01:41:03;15.10;;;10.88;;
36949;SDS011;22861;55.824;37.660;2022-07-09T01:43:28;17.75;;;12.60;;
36949;SDS011;22861;55.824;37.660;2022-07-09T01:45:55;18.88;;;10.95;;
36949;SDS011;22861;55.824;37.660;2022-07-09T01:48:21;19.02;;;12.43;;
36949;SDS011;22861;55.824;37.660;2022-07-09T01:50:47;18.75;;;11.00;;
36949;SDS011;22861;55.824;37.660;2022-07-09T01:53:13;17.27;;;11.48;;
36949;SDS011;22861;55.824;37.660;2022-07-09T01:55:39;18.13;;;10.90;;
36949;SDS011;22861;55.824;37.660;2022-07-09T01:58:04;18.27;;;11.35;;
36949;SDS011;22861;55.824;37.660;2022-07-09T02:00:30;19.30;;;12.05;;
36949;SDS011;22861;55.824;37.660;2022-07-09T02:02:56;12.85;;;10.50;;
36949;SDS011;22861;55.824;37.660;2022-07-09T02:05:22;14.63;;;10.10;;
36949;SDS011;22861;55.824;37.660;2022-07-09T02:07:48;18.55;;;11.45;;
36949;SDS011;22861;55.824;37.660;2022-07-09T02:10:14;16.42;;;9.35;;
36949;SDS011;22861;55.824;37.660;2022-07-09T02:12:40;11.75;;;8.55;;
36949;SDS011;22861;55.824;37.660;2022-07-09T02:15:06;13.50;;;10.77;;
36949;SDS011;22861;55.824;37.660;2022-07-09T02:17:33;16.73;;;9.82;;
36949;SDS011;22861;55.824;37.660;2022-07-09T02:19:59;13.82;;;9.63;;
36949;SDS011;22861;55.824;37.660;2022-07-09T02:22:25;101.53;;;13.68;;
36949;SDS011;22861;55.824;37.660;2022-07-09T02:24:50;24.58;;;9.60;;
36949;SDS011;22861;55.824;37.660;2022-07-09T02:27:16;14.88;;;9.65;;
36949;SDS011;22861;55.824;37.660;2022-07-09T02:29:41;14.68;;;9.98;;
36949;SDS011;22861;55.824;37.660;2022-07-09T02:32:07;14.75;;;10.27;;
36949;SDS011;22861;55.824;37.660;2022-07-09T02:34:35;16.08;;;9.85;;
36949;SDS011;22861;55.824;37.660;2022-07-09T02:37:02;14.95;;;9.57;;
36949;SDS011;22861;55.824;37.660;2022-07-09T02:39:28;16.92;;;10.50;;
36949;SDS011;22861;55.824;37.660;2022-07-09T02:41:53;15.90;;;10.00;;
36949;SDS011;22861;55.824;37.660;2022-07-09T02:44:19;16.65;;;10.23;;
36949;SDS011;22861;55.824;37.660;2022-07-09T02:46:44;14.70;;;9.02;;
36949;SDS011;22861;55.824;37.660;2022-07-09T02:49:10;16.73;;;10.20;;
36949;SDS011;22861;55.824;37.660;2022-07-09T02:51:35;17.55;;;9.52;;
36949;SDS011;22861;55.824;37.660;2022-07-09T02:54:02;14.18;;;9.18;;
36949;SDS011;22861;55.824;37.660;2022-07-09T02:56:27;13.35;;;8.75;;
36949;SDS011;22861;55.824;37.660;2022-07-09T02:58:53;16.23;;;10.32;;
36949;SDS011;22861;55.824;37.660;2022-07-09T03:01:19;15.55;;;10.18;;
36949;SDS011;22861;55.824;37.660;2022-07-09T03:03:44;20.95;;;9.82;;
36949;SDS011;22861;55.824;37.660;2022-07-09T03:06:10;18.10;;;9.25;;
36949;SDS011;22861;55.824;37.660;2022-07-09T03:08:36;18.63;;;10.10;;
36949;SDS011;22861;55.824;37.660;2022-07-09T03:11:01;19.48;;;10.02;;
36949;SDS011;22861;55.824;37.660;2022-07-09T03:13:27;15.93;;;9.43;;
36949;SDS011;22861;55.824;37.660;2022-07-09T03:15:53;17.00;;;9.80;;
36949;SDS011;22861;55.824;37.660;2022-07-09T03:18:18;18.00;;;9.80;;
36949;SDS011;22861;55.824;37.660;2022-07-09T03:20:44;15.50;;;10.10;;
36949;SDS011;22861;55.824;37.660;2022-07-09T03:23:09;16.30;;;10.57;;
36949;SDS011;22861;55.824;37.660;2022-07-09T03:25:38;16.52;;;9.25;;
36949;SDS011;22861;55.824;37.660;2022-07-09T03:28:03;18.02;;;9.55;;
36949;SDS011;22861;55.824;37.660;2022-07-09T03:30:29;17.52;;;10.18;;
36949;SDS011;22861;55.824;37.660;2022-07-09T03:32:55;14.88;;;9.23;;
36949;SDS011;22861;55.824;37.660;2022-07-09T03:35:21;12.68;;;9.27;;
36949;SDS011;22861;55.824;37.660;2022-07-09T03:37:46;15.57;;;10.25;;
36949;SDS011;22861;55.824;37.660;2022-07-09T03:40:12;20.65;;;9.85;;
36949;SDS011;22861;55.824;37.660;2022-07-09T03:42:37;16.10;;;9.95;;
36949;SDS011;22861;55.824;37.660;2022-07-09T03:45:03;17.13;;;10.45;;
36949;SDS011;22861;55.824;37.660;2022-07-09T03:47:29;12.52;;;9.82;;
36949;SDS011;22861;55.824;37.660;2022-07-09T03:49:54;16.67;;;10.10;;
36949;SDS011;22861;55.824;37.660;2022-07-09T03:52:20;14.02;;;10.13;;
36949;SDS011;22861;55.824;37.660;2022-07-09T03:54:45;18.90;;;11.07;;
36949;SDS011;22861;55.824;37.660;2022-07-09T03:57:11;13.20;;;9.25;;
36949;SDS011;22861;55.824;37.660;2022-07-09T03:59:36;14.68;;;10.35;;
36949;SDS011;22861;55.824;37.660;2022-07-09T04:02:02;20.15;;;11.18;;
36949;SDS011;22861;55.824;37.660;2022-07-09T04:04:29;23.55;;;12.23;;
36949;SDS011;22861;55.824;37.660;2022-07-09T04:06:54;16.60;;;11.45;;
36949;SDS011;22861;55.824;37.660;2022-07-09T04:09:20;17.13;;;11.05;;
36949;SDS011;22861;55.824;37.660;2022-07-09T04:11:46;16.83;;;11.65;;
36949;SDS011;22861;55.824;37.660;2022-07-09T04:14:13;16.92;;;11.82;;
36949;SDS011;22861;55.824;37.660;2022-07-09T04:16:39;17.50;;;11.02;;
36949;SDS011;22861;55.824;37.660;2022-07-09T04:19:05;18.92;;;10.43;;
36949;SDS011;22861;55.824;37.660;2022-07-09T04:21:31;23.05;;;11.75;;
36949;SDS011;22861;55.824;37.660;2022-07-09T04:23:57;22.35;;;11.50;;
36949;SDS011;22861;55.824;37.660;2022-07-09T04:26:22;23.77;;;10.93;;
36949;SDS011;22861;55.824;37.660;2022-07-09T04:28:49;17.42;;;12.15;;
36949;SDS011;22861;55.824;37.660;2022-07-09T04:31:14;18.73;;;10.85;;
36949;SDS011;22861;55.824;37.660;2022-07-09T04:33:41;20.38;;;11.07;;
36949;SDS011;22861;55.824;37.660;2022-07-09T04:36:08;17.95;;;10.55;;
36949;SDS011;22861;55.824;37.660;2022-07-09T04:38:34;27.23;;;9.95;;
36949;SDS011;22861;55.824;37.660;2022-07-09T04:40:59;16.38;;;10.20;;
36949;SDS011;22861;55.824;37.660;2022-07-09T04:43:24;20.75;;;11.63;;
36949;SDS011;22861;55.824;37.660;2022-07-09T04:45:50;15.85;;;10.35;;
36949;SDS011;22861;55.824;37.660;2022-07-09T04:48:16;17.90;;;9.95;;
36949;SDS011;22861;55.824;37.660;2022-07-09T04:50:41;16.70;;;8.27;;
36949;SDS011;22861;55.824;37.660;2022-07-09T04:53:07;15.82;;;8.18;;
36949;SDS011;22861;55.824;37.660;2022-07-09T04:55:32;15.70;;;9.07;;
36949;SDS011;22861;55.824;37.660;2022-07-09T04:57:58;15.73;;;8.73;;
36949;SDS011;22861;55.824;37.660;2022-07-09T05:00:23;13.25;;;7.55;;
36949;SDS011;22861;55.824;37.660;2022-07-09T05:02:49;13.77;;;7.65;;
36949;SDS011;22861;55.824;37.660;2022-07-09T05:05:14;11.68;;;7.07;;
36949;SDS011;22861;55.824;37.660;2022-07-09T05:07:40;14.85;;;6.63;;
36949;SDS011;22861;55.824;37.660;2022-07-09T05:10:09;13.23;;;6.25;;
36949;SDS011;22861;55.824;37.660;2022-07-09T05:12:35;11.57;;;5.47;;
36949;SDS011;22861;55.824;37.660;2022-07-09T05:15:01;5.85;;;4.30;;
36949;SDS011;22861;55.824;37.660;2022-07-09T05:17:27;9.15;;;4.40;;
36949;SDS011;22861;55.824;37.660;2022-07-09T05:19:52;7.10;;;3.60;;
36949;SDS011;22861;55.824;37.660;2022-07-09T05:22:18;6.20;;;2.97;;
36949;SDS011;22861;55.824;37.660;2022-07-09T05:24:43;7.05;;;2.60;;
36949;SDS011;22861;55.824;37.660;2022-07-09T05:27:09;5.38;;;2.22;;
36949;SDS011;22861;55.824;37.660;2022-07-09T05:29:37;8.18;;;2.22;;
36949;SDS011;22861;55.824;37.660;2022-07-09T05:32:03;5.70;;;2.55;;
36949;SDS011;22861;55.824;37.660;2022-07-09T05:34:29;4.68;;;2.00;;
36949;SDS011;22861;55.824;37.660;2022-07-09T05:36:55;4.43;;;2.00;;
36949;SDS011;22861;55.824;37.660;2022-07-09T05:39:21;3.47;;;1.90;;
36949;SDS011;22861;55.824;37.660;2022-07-09T05:41:47;5.57;;;2.17;;
36949;SDS011;22861;55.824;37.660;2022-07-09T05:44:13;4.88;;;1.90;;
36949;SDS011;22861;55.824;37.660;2022-07-09T05:46:39;4.28;;;1.70;;
36949;SDS011;22861;55.824;37.660;2022-07-09T05:49:05;4.22;;;1.95;;
36949;SDS011;22861;55.824;37.660;2022-07-09T05:51:31;5.40;;;1.80;;
36949;SDS011;22861;55.824;37.660;2022-07-09T05:53:57;2.97;;;1.85;;
36949;SDS011;22861;55.824;37.660;2022-07-09T05:56:23;3.72;;;1.80;;
36949;SDS011;22861;55.824;37.660;2022-07-09T05:58:48;4.43;;;2.10;;
36949;SDS011;22861;55.824;37.660;2022-07-09T06:01:14;7.60;;;2.20;;
36949;SDS011;22861;55.824;37.660;2022-07-09T06:03:40;3.67;;;1.65;;
36949;SDS011;22861;55.824;37.660;2022-07-09T06:06:06;3.72;;;1.90;;
36949;SDS011;22861;55.824;37.660;2022-07-09T06:08:31;5.85;;;2.20;;
36949;SDS011;22861;55.824;37.660;2022-07-09T06:10:58;2.92;;;1.50;;
36949;SDS011;22861;55.824;37.660;2022-07-09T06:13:24;5.43;;;1.80;;
36949;SDS011;22861;55.824;37.660;2022-07-09T06:15:49;4.35;;;2.38;;
36949;SDS011;22861;55.824;37.660;2022-07-09T06:18:15;5.07;;;1.80;;
36949;SDS011;22861;55.824;37.660;2022-07-09T06:20:41;4.22;;;2.40;;
36949;SDS011;22861;55.824;37.660;2022-07-09T06:23:06;5.20;;;2.55;;
36949;SDS011;22861;55.824;37.660;2022-07-09T06:25:32;9.88;;;2.33;;
36949;SDS011;22861;55.824;37.660;2022-07-09T06:27:58;4.78;;;2.13;;
36949;SDS011;22861;55.824;37.660;2022-07-09T06:30:23;4.55;;;2.13;;
36949;SDS011;22861;55.824;37.660;2022-07-09T06:32:49;11.75;;;2.20;;
36949;SDS011;22861;55.824;37.660;2022-07-09T06:35:16;4.72;;;1.88;;
36949;SDS011;22861;55.824;37.660;2022-07-09T06:37:41;7.75;;;2.20;;
36949;SDS011;22861;55.824;37.660;2022-07-09T06:40:07;5.25;;;1.90;;
36949;SDS011;22861;55.824;37.660;2022-07-09T06:42:35;3.78;;;1.90;;
36949;SDS011;22861;55.824;37.660;2022-07-09T06:45:01;4.78;;;2.05;;
36949;SDS011;22861;55.824;37.660;2022-07-09T06:47:26;4.00;;;1.95;;
36949;SDS011;22861;55.824;37.660;2022-07-09T06:49:52;3.08;;;1.95;;
36949;SDS011;22861;55.824;37.660;2022-07-09T06:52:17;5.30;;;2.45;;
36949;SDS011;22861;55.824;37.660;2022-07-09T06:54:43;5.97;;;1.80;;
36949;SDS011;22861;55.824;37.660;2022-07-09T06:57:08;4.57;;;2.10;;
36949;SDS011;22861;55.824;37.660;2022-07-09T06:59:38;3.67;;;2.20;;
36949;SDS011;22861;55.824;37.660;2022-07-09T07:02:04;5.43;;;2.13;;
36949;SDS011;22861;55.824;37.660;2022-07-09T07:04:30;8.98;;;2.05;;
36949;SDS011;22861;55.824;37.660;2022-07-09T07:06:55;4.00;;;1.88;;
36949;SDS011;22861;55.824;37.660;2022-07-09T07:09:21;2.95;;;1.75;;
36949;SDS011;22861;55.824;37.660;2022-07-09T07:11:47;7.40;;;1.95;;
36949;SDS011;22861;55.824;37.660;2022-07-09T07:14:14;3.83;;;1.80;;
36949;SDS011;22861;55.824;37.660;2022-07-09T07:16:40;2.88;;;1.75;;
36949;SDS011;22861;55.824;37.660;2022-07-09T07:19:05;4.50;;;1.92;;
36949;SDS011;22861;55.824;37.660;2022-07-09T07:21:31;3.38;;;1.63;;
36949;SDS011;22861;55.824;37.660;2022-07-09T07:23:56;4.15;;;2.08;;
36949;SDS011;22861;55.824;37.660;2022-07-09T07:26:22;3.88;;;1.70;;
36949;SDS011;22861;55.824;37.660;2022-07-09T07:28:47;2.70;;;1.60;;
36949;SDS011;22861;55.824;37.660;2022-07-09T07:31:14;7.50;;;1.80;;
36949;SDS011;22861;55.824;37.660;2022-07-09T07:33:40;2.70;;;1.60;;
36949;SDS011;22861;55.824;37.660;2022-07-09T07:36:06;4.72;;;1.98;;
36949;SDS011;22861;55.824;37.660;2022-07-09T07:38:33;3.95;;;1.88;;
36949;SDS011;22861;55.824;37.660;2022-07-09T07:40:59;5.20;;;1.90;;
36949;SDS011;22861;55.824;37.660;2022-07-09T07:43:24;5.38;;;1.77;;
36949;SDS011;22861;55.824;37.660;2022-07-09T07:45:50;2.67;;;1.88;;
36949;SDS011;22861;55.824;37.660;2022-07-09T07:48:15;3.42;;;1.70;;
36949;SDS011;22861;55.824;37.660;2022-07-09T07:50:41;3.67;;;1.70;;
36949;SDS011;22861;55.824;37.660;2022-07-09T07:53:06;5.22;;;2.35;;
36949;SDS011;22861;55.824;37.660;2022-07-09T07:55:32;3.67;;;1.55;;
36949;SDS011;22861;55.824;37.660;2022-07-09T07:57:58;4.30;;;1.95;;
36949;SDS011;22861;55.824;37.660;2022-07-09T08:00:23;3.35;;;1.75;;
36949;SDS011;22861;55.824;37.660;2022-07-09T08:02:49;4.43;;;1.80;;
36949;SDS011;22861;55.824;37.660;2022-07-09T08:05:15;5.43;;;1.65;;
36949;SDS011;22861;55.824;37.660;2022-07-09T08:07:40;4.05;;;1.60;;
36949;SDS011;22861;55.824;37.660;2022-07-09T08:10:06;4.53;;;2.20;;
36949;SDS011;22861;55.824;37.660;2022-07-09T08:12:32;3.50;;;1.88;;
36949;SDS011;22861;55.824;37.660;2022-07-09T08:14:58;3.20;;;1.63;;
36949;SDS011;22861;55.824;37.660;2022-07-09T08:17:23;4.15;;;2.10;;
36949;SDS011;22861;55.824;37.660;2022-07-09T08:19:49;5.00;;;2.10;;
36949;SDS011;22861;55.824;37.660;2022-07-09T08:22:15;3.45;;;2.03;;
36949;SDS011;22861;55.824;37.660;2022-07-09T08:24:41;8.15;;;2.22;;
36949;SDS011;22861;55.824;37.660;2022-07-09T08:27:06;10.20;;;6.85;;
36949;SDS011;22861;55.824;37.660;2022-07-09T08:29:32;8.02;;;2.60;;
36949;SDS011;22861;55.824;37.660;2022-07-09T08:31:57;3.65;;;1.85;;
36949;SDS011;22861;55.824;37.660;2022-07-09T08:34:23;5.45;;;2.33;;
36949;SDS011;22861;55.824;37.660;2022-07-09T08:36:48;4.32;;;2.63;;
36949;SDS011;22861;55.824;37.660;2022-07-09T08:39:14;7.55;;;2.60;;
36949;SDS011;22861;55.824;37.660;2022-07-09T08:41:39;5.63;;;2.70;;
36949;SDS011;22861;55.824;37.660;2022-07-09T08:44:06;5.22;;;2.45;;
36949;SDS011;22861;55.824;37.660;2022-07-09T08:46:36;5.65;;;2.25;;
36949;SDS011;22861;55.824;37.660;2022-07-09T08:49:03;7.15;;;2.65;;
36949;SDS011;22861;55.824;37.660;2022-07-09T08:51:29;4.75;;;1.90;;
36949;SDS011;22861;55.824;37.660;2022-07-09T08:53:55;3.55;;;2.38;;
36949;SDS011;22861;55.824;37.660;2022-07-09T08:56:21;4.97;;;2.80;;
36949;SDS011;22861;55.824;37.660;2022-07-09T08:58:47;4.30;;;3.00;;
36949;SDS011;22861;55.824;37.660;2022-07-09T09:01:15;7.03;;;3.30;;
36949;SDS011;22861;55.824;37.660;2022-07-09T09:03:42;9.40;;;3.88;;
36949;SDS011;22861;55.824;37.660;2022-07-09T09:06:09;5.50;;;2.70;;
36949;SDS011;22861;55.824;37.660;2022-07-09T09:08:36;8.13;;;3.05;;
36949;SDS011;22861;55.824;37.660;2022-07-09T09:11:07;9.45;;;3.22;;
36949;SDS011;22861;55.824;37.660;2022-07-09T09:13:47;8.55;;;2.88;;
36949;SDS011;22861;55.824;37.660;2022-07-09T09:16:14;5.88;;;3.03;;
36949;SDS011;22861;55.824;37.660;2022-07-09T09:18:51;6.93;;;2.80;;
36949;SDS011;22861;55.824;37.660;2022-07-09T09:21:21;5.82;;;2.50;;
36949;SDS011;22861;55.824;37.660;2022-07-09T09:23:49;7.15;;;2.97;;
36949;SDS011;22861;55.824;37.660;2022-07-09T09:26:26;7.53;;;2.67;;
36949;SDS011;22861;55.824;37.660;2022-07-09T09:33:44;4.50;;;2.53;;
36949;SDS011;22861;55.824;37.660;2022-07-09T09:36:10;8.10;;;3.00;;
36949;SDS011;22861;55.824;37.660;2022-07-09T09:38:35;8.35;;;2.67;;
36949;SDS011;22861;55.824;37.660;2022-07-09T09:41:01;7.43;;;2.70;;
36949;SDS011;22861;55.824;37.660;2022-07-09T09:43:26;7.10;;;2.70;;
36949;SDS011;22861;55.824;37.660;2022-07-09T09:45:54;5.60;;;2.50;;
36949;SDS011;22861;55.824;37.660;2022-07-09T09:48:23;8.30;;;2.50;;
36949;SDS011;22861;55.824;37.660;2022-07-09T09:50:49;10.02;;;2.90;;
36949;SDS011;22861;55.824;37.660;2022-07-09T09:53:17;7.85;;;2.85;;
36949;SDS011;22861;55.824;37.660;2022-07-09T09:55:44;9.05;;;3.10;;
36949;SDS011;22861;55.824;37.660;2022-07-09T09:58:11;8.07;;;3.15;;
36949;SDS011;22861;55.824;37.660;2022-07-09T10:00:38;5.55;;;3.20;;
36949;SDS011;22861;55.824;37.660;2022-07-09T10:03:04;8.80;;;3.38;;
36949;SDS011;22861;55.824;37.660;2022-07-09T10:05:31;6.65;;;3.47;;
36949;SDS011;22861;55.824;37.660;2022-07-09T10:07:57;5.40;;;3.05;;
36949;SDS011;22861;55.824;37.660;2022-07-09T10:10:23;10.25;;;3.33;;
36949;SDS011;22861;55.824;37.660;2022-07-09T10:12:49;10.73;;;3.75;;
36949;SDS011;22861;55.824;37.660;2022-07-09T10:15:21;6.63;;;3.20;;
36949;SDS011;22861;55.824;37.660;2022-07-09T10:17:48;8.73;;;3.20;;
36949;SDS011;22861;55.824;37.660;2022-07-09T10:20:14;8.50;;;3.38;;
36949;SDS011;22861;55.824;37.660;2022-07-09T10:25:07;10.48;;;3.80;;
36949;SDS011;22861;55.824;37.660;2022-07-09T10:27:52;9.35;;;3.53;;
36949;SDS011;22861;55.824;37.660;2022-07-09T10:30:22;7.72;;;3.60;;
36949;SDS011;22861;55.824;37.660;2022-07-09T10:35:30;6.88;;;3.17;;
36949;SDS011;22861;55.824;37.660;2022-07-09T10:37:56;4.82;;;2.78;;
36949;SDS011;22861;55.824;37.660;2022-07-09T10:40:22;6.95;;;3.58;;
36949;SDS011;22861;55.824;37.660;2022-07-09T10:42:58;10.98;;;3.38;;
36949;SDS011;22861;55.824;37.660;2022-07-09T10:45:40;8.55;;;3.90;;
36949;SDS011;22861;55.824;37.660;2022-07-09T10:48:13;8.40;;;4.28;;
36949;SDS011;22861;55.824;37.660;2022-07-09T10:50:42;5.67;;;3.80;;
36949;SDS011;22861;55.824;37.660;2022-07-09T10:53:09;7.15;;;3.67;;
36949;SDS011;22861;55.824;37.660;2022-07-09T10:55:36;6.38;;;3.85;;
36949;SDS011;22861;55.824;37.660;2022-07-09T10:58:02;8.43;;;3.70;;
36949;SDS011;22861;55.824;37.660;2022-07-09T11:00:32;10.75;;;2.60;;
36949;SDS011;22861;55.824;37.660;2022-07-09T11:03:02;3.90;;;2.08;;
36949;SDS011;22861;55.824;37.660;2022-07-09T11:05:43;3.00;;;1.90;;
36949;SDS011;22861;55.824;37.660;2022-07-09T11:08:10;4.65;;;2.20;;
36949;SDS011;22861;55.824;37.660;2022-07-09T11:10:37;3.55;;;2.00;;
36949;SDS011;22861;55.824;37.660;2022-07-09T11:13:04;3.08;;;2.00;;
36949;SDS011;22861;55.824;37.660;2022-07-09T11:15:32;2.33;;;1.73;;
36949;SDS011;22861;55.824;37.660;2022-07-09T11:18:05;5.60;;;1.98;;
36949;SDS011;22861;55.824;37.660;2022-07-09T11:20:45;3.55;;;2.00;;
36949;SDS011;22861;55.824;37.660;2022-07-09T11:23:15;4.20;;;2.05;;
36949;SDS011;22861;55.824;37.660;2022-07-09T11:25:42;3.38;;;1.92;;
36949;SDS011;22861;55.824;37.660;2022-07-09T11:28:08;3.97;;;2.20;;
36949;SDS011;22861;55.824;37.660;2022-07-09T11:30:43;4.35;;;2.20;;
36949;SDS011;22861;55.824;37.660;2022-07-09T11:33:11;3.55;;;2.22;;
36949;SDS011;22861;55.824;37.660;2022-07-09T11:35:37;4.35;;;2.20;;
36949;SDS011;22861;55.824;37.660;2022-07-09T11:38:03;4.75;;;2.67;;
36949;SDS011;22861;55.824;37.660;2022-07-09T11:40:32;5.75;;;2.63;;
36949;SDS011;22861;55.824;37.660;2022-07-09T11:42:57;4.00;;;2.55;;
36949;SDS011;22861;55.824;37.660;2022-07-09T11:45:27;4.57;;;2.88;;
36949;SDS011;22861;55.824;37.660;2022-07-09T11:48:06;8.77;;;3.20;;
36949;SDS011;22861;55.824;37.660;2022-07-09T11:50:33;6.38;;;3.03;;
36949;SDS011;22861;55.824;37.660;2022-07-09T11:53:07;4.88;;;3.40;;
36949;SDS011;22861;55.824;37.660;2022-07-09T11:55:44;5.47;;;3.50;;
36949;SDS011;22861;55.824;37.660;2022-07-09T11:58:31;7.05;;;3.40;;
36949;SDS011;22861;55.824;37.660;2022-07-09T12:00:57;7.80;;;3.92;;
36949;SDS011;22861;55.824;37.660;2022-07-09T12:03:26;6.47;;;3.78;;
36949;SDS011;22861;55.824;37.660;2022-07-09T12:05:53;6.38;;;3.38;;
36949;SDS011;22861;55.824;37.660;2022-07-09T12:08:29;5.35;;;3.60;;
36949;SDS011;22861;55.824;37.660;2022-07-09T12:10:56;6.53;;;3.75;;
36949;SDS011;22861;55.824;37.660;2022-07-09T12:13:23;5.60;;;2.90;;
36949;SDS011;22861;55.824;37.660;2022-07-09T12:15:48;5.00;;;3.20;;
36949;SDS011;22861;55.824;37.660;2022-07-09T12:18:14;7.78;;;3.30;;
36949;SDS011;22861;55.824;37.660;2022-07-09T12:20:39;4.65;;;2.67;;
36949;SDS011;22861;55.824;37.660;2022-07-09T12:23:06;5.07;;;3.08;;
36949;SDS011;22861;55.824;37.660;2022-07-09T12:25:31;5.40;;;2.83;;
36949;SDS011;22861;55.824;37.660;2022-07-09T12:27:57;5.15;;;3.05;;
36949;SDS011;22861;55.824;37.660;2022-07-09T12:30:22;7.57;;;3.50;;
36949;SDS011;22861;55.824;37.660;2022-07-09T12:32:48;5.82;;;3.20;;
36949;SDS011;22861;55.824;37.660;2022-07-09T12:35:14;8.18;;;3.50;;
36949;SDS011;22861;55.824;37.660;2022-07-09T12:37:41;6.93;;;3.30;;
36949;SDS011;22861;55.824;37.660;2022-07-09T12:40:07;4.32;;;3.30;;
36949;SDS011;22861;55.824;37.660;2022-07-09T12:42:35;4.80;;;3.63;;
36949;SDS011;22861;55.824;37.660;2022-07-09T12:45:00;5.40;;;3.58;;
36949;SDS011;22861;55.824;37.660;2022-07-09T12:47:26;5.95;;;3.60;;
36949;SDS011;22861;55.824;37.660;2022-07-09T12:49:52;4.68;;;3.28;;
36949;SDS011;22861;55.824;37.660;2022-07-09T12:52:17;5.05;;;3.45;;
36949;SDS011;22861;55.824;37.660;2022-07-09T12:54:43;5.15;;;3.10;;
36949;SDS011;22861;55.824;37.660;2022-07-09T12:57:09;5.35;;;3.47;;
36949;SDS011;22861;55.824;37.660;2022-07-09T12:59:35;6.15;;;3.80;;
36949;SDS011;22861;55.824;37.660;2022-07-09T13:02:01;7.20;;;3.75;;
36949;SDS011;22861;55.824;37.660;2022-07-09T13:04:26;8.27;;;3.70;;
36949;SDS011;22861;55.824;37.660;2022-07-09T13:06:52;5.05;;;3.60;;
36949;SDS011;22861;55.824;37.660;2022-07-09T13:09:18;5.13;;;3.83;;
36949;SDS011;22861;55.824;37.660;2022-07-09T13:11:44;5.22;;;3.67;;
36949;SDS011;22861;55.824;37.660;2022-07-09T13:14:10;5.15;;;3.88;;
36949;SDS011;22861;55.824;37.660;2022-07-09T13:16:35;5.95;;;3.80;;
36949;SDS011;22861;55.824;37.660;2022-07-09T13:19:04;5.97;;;3.60;;
36949;SDS011;22861;55.824;37.660;2022-07-09T13:21:29;5.55;;;3.63;;
36949;SDS011;22861;55.824;37.660;2022-07-09T13:23:55;4.63;;;3.42;;
36949;SDS011;22861;55.824;37.660;2022-07-09T13:26:21;4.95;;;3.50;;
36949;SDS011;22861;55.824;37.660;2022-07-09T13:28:47;4.20;;;3.40;;
36949;SDS011;22861;55.824;37.660;2022-07-09T13:31:12;4.97;;;3.38;;
36949;SDS011;22861;55.824;37.660;2022-07-09T13:33:38;4.95;;;3.50;;
36949;SDS011;22861;55.824;37.660;2022-07-09T13:36:04;4.00;;;3.10;;
36949;SDS011;22861;55.824;37.660;2022-07-09T13:38:30;7.55;;;3.80;;
36949;SDS011;22861;55.824;37.660;2022-07-09T13:40:57;6.35;;;4.18;;
36949;SDS011;22861;55.824;37.660;2022-07-09T13:43:22;6.32;;;3.85;;
36949;SDS011;22861;55.824;37.660;2022-07-09T13:45:55;4.93;;;3.47;;
36949;SDS011;22861;55.824;37.660;2022-07-09T13:48:22;5.93;;;3.50;;
36949;SDS011;22861;55.824;37.660;2022-07-09T13:53:16;6.68;;;3.90;;
36949;SDS011;22861;55.824;37.660;2022-07-09T13:55:42;4.25;;;3.45;;
36949;SDS011;22861;55.824;37.660;2022-07-09T13:58:08;4.05;;;3.17;;
36949;SDS011;22861;55.824;37.660;2022-07-09T14:00:34;5.70;;;3.50;;
36949;SDS011;22861;55.824;37.660;2022-07-09T14:02:59;5.93;;;3.40;;
36949;SDS011;22861;55.824;37.660;2022-07-09T14:05:25;7.38;;;4.03;;
36949;SDS011;22861;55.824;37.660;2022-07-09T14:07:50;6.45;;;4.05;;
36949;SDS011;22861;55.824;37.660;2022-07-09T14:10:16;5.30;;;3.30;;
36949;SDS011;22861;55.824;37.660;2022-07-09T14:12:41;5.07;;;3.28;;
36949;SDS011;22861;55.824;37.660;2022-07-09T14:15:07;5.05;;;3.28;;
36949;SDS011;22861;55.824;37.660;2022-07-09T14:17:33;5.28;;;3.88;;
36949;SDS011;22861;55.824;37.660;2022-07-09T14:19:59;5.57;;;3.30;;
36949;SDS011;22861;55.824;37.660;2022-07-09T14:22:25;4.75;;;3.42;;
36949;SDS011;22861;55.824;37.660;2022-07-09T14:24:51;6.32;;;3.40;;
36949;SDS011;22861;55.824;37.660;2022-07-09T14:27:17;4.90;;;3.45;;
36949;SDS011;22861;55.824;37.660;2022-07-09T14:29:43;5.63;;;3.33;;
36949;SDS011;22861;55.824;37.660;2022-07-09T14:32:09;5.90;;;3.50;;
36949;SDS011;22861;55.824;37.660;2022-07-09T14:34:35;5.40;;;3.60;;
36949;SDS011;22861;55.824;37.660;2022-07-09T14:37:01;4.55;;;3.40;;